AMX642 MMMX-KLAX
Flight info
| Callsign | AMX642 |
|---|---|
| Flight time | 3h 30m |
| Altitude | 38000 |
| Route | SEBON3A SEBON UT124 GDL UJ3 LMM DCT GYM DCT AVRIL DCT ASUTA DCT AMMOR OLAAA2 |
| Aircraft | B738/M-SDE2E3FGHIRWYZ/LB1V1 |
Departure
| Time | 2026-04-20 17:48 |
|---|---|
| Airport | Mexico City Benito Juárez International Airport (MMMX) |
Arrival
| Time | 2026-04-20 21:18 |
|---|---|
| Airport | Los Angeles International Airport (KLAX) |
| Time | Latitude | Longitude | Altitude | Speed | Heading |
|---|---|---|---|---|---|
| 2026-04-20 17:20 | 19.42262 | -99.07964 | 7302 ft | 0 kts | 211° |
| 2026-04-20 17:40 | 19.42274 | -99.07956 | 7302 ft | 4 kts | 219° |
| 2026-04-20 17:40 | 19.42291 | -99.07935 | 7302 ft | 4 kts | 248° |
| 2026-04-20 17:40 | 19.42295 | -99.07909 | 7302 ft | 4 kts | 294° |
| 2026-04-20 17:40 | 19.42290 | -99.07900 | 7302 ft | 0 kts | 310° |
| 2026-04-20 17:43 | 19.42297 | -99.07909 | 7302 ft | 5 kts | 310° |
| 2026-04-20 17:43 | 19.42338 | -99.07960 | 7302 ft | 11 kts | 310° |
| 2026-04-20 17:43 | 19.42390 | -99.08016 | 7302 ft | 11 kts | 327° |
| 2026-04-20 17:43 | 19.42459 | -99.08060 | 7302 ft | 13 kts | 329° |
| 2026-04-20 17:44 | 19.42546 | -99.08114 | 7302 ft | 14 kts | 329° |
| 2026-04-20 17:44 | 19.42609 | -99.08168 | 7302 ft | 11 kts | 284° |
| 2026-04-20 17:44 | 19.42577 | -99.08240 | 7302 ft | 11 kts | 238° |
| 2026-04-20 17:44 | 19.42556 | -99.08313 | 7302 ft | 11 kts | 277° |
| 2026-04-20 17:45 | 19.42583 | -99.08385 | 7302 ft | 11 kts | 295° |
| 2026-04-20 17:45 | 19.42620 | -99.08469 | 7302 ft | 15 kts | 294° |
| 2026-04-20 17:45 | 19.42663 | -99.08576 | 7302 ft | 16 kts | 290° |
| 2026-04-20 17:45 | 19.42677 | -99.08688 | 7302 ft | 16 kts | 273° |
| 2026-04-20 17:46 | 19.42684 | -99.08801 | 7302 ft | 15 kts | 274° |
| 2026-04-20 17:46 | 19.42692 | -99.08910 | 7302 ft | 14 kts | 275° |
| 2026-04-20 17:46 | 19.42698 | -99.09011 | 7302 ft | 12 kts | 272° |
| 2026-04-20 17:46 | 19.42753 | -99.09051 | 7302 ft | 12 kts | 32° |
| 2026-04-20 17:47 | 19.42815 | -99.08952 | 7302 ft | 33 kts | 58° |
| 2026-04-20 17:47 | 19.43055 | -99.08520 | 7301 ft | 102 kts | 59° |
| 2026-04-20 17:47 | 19.43526 | -99.07684 | 7303 ft | 160 kts | 59° |
| 2026-04-20 17:47 | 19.44169 | -99.06539 | 7399 ft | 200 kts | 55° |
| 2026-04-20 17:48 | 19.44881 | -99.05282 | 8419 ft | 197 kts | 57° |
| 2026-04-20 17:48 | 19.45588 | -99.04028 | 9302 ft | 202 kts | 58° |
| 2026-04-20 17:48 | 19.46341 | -99.02688 | 9524 ft | 224 kts | 58° |
| 2026-04-20 17:48 | 19.47181 | -99.01197 | 9670 ft | 247 kts | 57° |
| 2026-04-20 17:49 | 19.48104 | -98.99559 | 9895 ft | 266 kts | 58° |
| 2026-04-20 17:49 | 19.49063 | -98.97842 | 10571 ft | 273 kts | 57° |
| 2026-04-20 17:49 | 19.49775 | -98.95992 | 11437 ft | 274 kts | 81° |
| 2026-04-20 17:49 | 19.49614 | -98.93983 | 12249 ft | 278 kts | 108° |
| 2026-04-20 17:50 | 19.48617 | -98.92228 | 13087 ft | 283 kts | 133° |
| 2026-04-20 17:50 | 19.46966 | -98.91081 | 13879 ft | 289 kts | 159° |
| 2026-04-20 17:50 | 19.44967 | -98.90791 | 14611 ft | 294 kts | 185° |
| 2026-04-20 17:50 | 19.43031 | -98.91430 | 15304 ft | 299 kts | 212° |
| 2026-04-20 17:51 | 19.41538 | -98.92945 | 16015 ft | 301 kts | 241° |
| 2026-04-20 17:51 | 19.40796 | -98.95009 | 16784 ft | 300 kts | 256° |
| 2026-04-20 17:51 | 19.40229 | -98.97152 | 17542 ft | 303 kts | 254° |
| 2026-04-20 17:51 | 19.39580 | -98.99286 | 18305 ft | 306 kts | 252° |
| 2026-04-20 17:52 | 19.38846 | -99.01409 | 19024 ft | 307 kts | 251° |
| 2026-04-20 17:52 | 19.38073 | -99.03520 | 19719 ft | 308 kts | 249° |
| 2026-04-20 17:52 | 19.37551 | -99.04920 | 20198 ft | 307 kts | 250° |
| 2026-04-20 17:52 | 19.36865 | -99.07070 | 20784 ft | 312 kts | 258° |
| 2026-04-20 17:53 | 19.36457 | -99.09396 | 20970 ft | 331 kts | 262° |
| 2026-04-20 17:53 | 19.36135 | -99.11877 | 21133 ft | 350 kts | 263° |
| 2026-04-20 17:53 | 19.35808 | -99.14504 | 21229 ft | 369 kts | 263° |
| 2026-04-20 17:53 | 19.35450 | -99.17250 | 21321 ft | 385 kts | 263° |
| 2026-04-20 17:54 | 19.35060 | -99.20084 | 21411 ft | 400 kts | 262° |
| 2026-04-20 17:54 | 19.34637 | -99.23043 | 21486 ft | 413 kts | 262° |
| 2026-04-20 17:54 | 19.34190 | -99.26102 | 21544 ft | 425 kts | 262° |
| 2026-04-20 17:54 | 19.33728 | -99.29235 | 21605 ft | 436 kts | 262° |
| 2026-04-20 17:55 | 19.33255 | -99.32441 | 21769 ft | 442 kts | 262° |
| 2026-04-20 17:55 | 19.32779 | -99.35662 | 22072 ft | 444 kts | 262° |
| 2026-04-20 17:55 | 19.32450 | -99.38910 | 22546 ft | 445 kts | 271° |
| 2026-04-20 17:55 | 19.32961 | -99.42146 | 22924 ft | 446 kts | 286° |
| 2026-04-20 17:56 | 19.33898 | -99.45281 | 23350 ft | 447 kts | 287° |
| 2026-04-20 17:56 | 19.34846 | -99.48419 | 23705 ft | 448 kts | 287° |
| 2026-04-20 17:56 | 19.35764 | -99.51540 | 24008 ft | 450 kts | 287° |
| 2026-04-20 17:56 | 19.36672 | -99.54715 | 24256 ft | 451 kts | 286° |
| 2026-04-20 17:57 | 19.37574 | -99.57908 | 24498 ft | 453 kts | 286° |
| 2026-04-20 17:57 | 19.38238 | -99.61164 | 24721 ft | 454 kts | 274° |
| 2026-04-20 17:57 | 19.38099 | -99.64508 | 24984 ft | 455 kts | 265° |
| 2026-04-20 17:57 | 19.37811 | -99.67856 | 25228 ft | 455 kts | 265° |
| 2026-04-20 17:58 | 19.37565 | -99.71202 | 25422 ft | 457 kts | 266° |
| 2026-04-20 17:58 | 19.37347 | -99.74565 | 25606 ft | 458 kts | 266° |
| 2026-04-20 17:58 | 19.37142 | -99.77942 | 25796 ft | 459 kts | 266° |
| 2026-04-20 17:58 | 19.36936 | -99.81324 | 25990 ft | 460 kts | 266° |
| 2026-04-20 17:59 | 19.36728 | -99.84669 | 26163 ft | 461 kts | 266° |
| 2026-04-20 17:59 | 19.36514 | -99.88066 | 26367 ft | 462 kts | 266° |
| 2026-04-20 17:59 | 19.36298 | -99.91459 | 26668 ft | 460 kts | 266° |
| 2026-04-20 17:59 | 19.36083 | -99.94832 | 27028 ft | 457 kts | 266° |
| 2026-04-20 18:00 | 19.35869 | -99.98184 | 27420 ft | 455 kts | 265° |
| 2026-04-20 18:00 | 19.35657 | -100.01517 | 27776 ft | 453 kts | 265° |
| 2026-04-20 18:00 | 19.35444 | -100.04847 | 28137 ft | 452 kts | 265° |
| 2026-04-20 18:00 | 19.35231 | -100.08163 | 28536 ft | 450 kts | 265° |
| 2026-04-20 18:01 | 19.35030 | -100.11465 | 28968 ft | 448 kts | 267° |
| 2026-04-20 18:01 | 19.35309 | -100.14744 | 29302 ft | 450 kts | 282° |
| 2026-04-20 18:01 | 19.36253 | -100.17859 | 29755 ft | 449 kts | 287° |
| 2026-04-20 18:01 | 19.37303 | -100.20964 | 30166 ft | 447 kts | 287° |
| 2026-04-20 18:02 | 19.38370 | -100.24066 | 30458 ft | 448 kts | 287° |
| 2026-04-20 18:02 | 19.39435 | -100.27172 | 30770 ft | 448 kts | 287° |
| 2026-04-20 18:02 | 19.40485 | -100.30276 | 31097 ft | 447 kts | 287° |
| 2026-04-20 18:02 | 19.41520 | -100.33379 | 31463 ft | 445 kts | 287° |
| 2026-04-20 18:03 | 19.42544 | -100.36474 | 31810 ft | 445 kts | 286° |
| 2026-04-20 18:03 | 19.43561 | -100.39569 | 32139 ft | 445 kts | 286° |
| 2026-04-20 18:03 | 19.44576 | -100.42665 | 32475 ft | 444 kts | 286° |
| 2026-04-20 18:03 | 19.45592 | -100.45763 | 32844 ft | 443 kts | 286° |
| 2026-04-20 18:04 | 19.46590 | -100.48808 | 33227 ft | 442 kts | 286° |
| 2026-04-20 18:04 | 19.47598 | -100.51884 | 33585 ft | 442 kts | 286° |
| 2026-04-20 18:04 | 19.48605 | -100.54961 | 33930 ft | 441 kts | 286° |
| 2026-04-20 18:04 | 19.49615 | -100.58026 | 34314 ft | 439 kts | 285° |
| 2026-04-20 18:05 | 19.51602 | -100.64111 | 34997 ft | 436 kts | 285° |
| 2026-04-20 18:05 | 19.52593 | -100.67154 | 35245 ft | 436 kts | 285° |
| 2026-04-20 18:05 | 19.53586 | -100.70199 | 35534 ft | 436 kts | 285° |
| 2026-04-20 18:06 | 19.54578 | -100.73234 | 35867 ft | 434 kts | 285° |
| 2026-04-20 18:06 | 19.55583 | -100.76245 | 36216 ft | 433 kts | 286° |
| 2026-04-20 18:06 | 19.56604 | -100.79240 | 36516 ft | 432 kts | 286° |
| 2026-04-20 18:06 | 19.57631 | -100.82231 | 36780 ft | 431 kts | 286° |
| 2026-04-20 18:07 | 19.58660 | -100.85226 | 37033 ft | 432 kts | 286° |
| 2026-04-20 18:07 | 19.59684 | -100.88214 | 37272 ft | 431 kts | 286° |
| 2026-04-20 18:07 | 19.60691 | -100.91161 | 37576 ft | 430 kts | 286° |
| 2026-04-20 18:07 | 19.61700 | -100.94135 | 37825 ft | 428 kts | 286° |
| 2026-04-20 18:08 | 19.62712 | -100.97104 | 38080 ft | 427 kts | 286° |
| 2026-04-20 18:08 | 19.63726 | -101.00085 | 38104 ft | 431 kts | 286° |
| 2026-04-20 18:08 | 19.65775 | -101.06123 | 38131 ft | 437 kts | 286° |
| 2026-04-20 18:09 | 19.67831 | -101.12186 | 38127 ft | 439 kts | 286° |
| 2026-04-20 18:09 | 19.68864 | -101.15234 | 38248 ft | 439 kts | 286° |
| 2026-04-20 18:09 | 19.69897 | -101.18285 | 38245 ft | 439 kts | 286° |
| 2026-04-20 18:10 | 19.71964 | -101.24395 | 38211 ft | 439 kts | 286° |
| 2026-04-20 18:10 | 19.74025 | -101.30496 | 38141 ft | 438 kts | 286° |
| 2026-04-20 18:11 | 19.76066 | -101.36544 | 38126 ft | 437 kts | 286° |
| 2026-04-20 18:11 | 19.78106 | -101.42600 | 38138 ft | 434 kts | 286° |
| 2026-04-20 18:12 | 19.80136 | -101.48632 | 38135 ft | 432 kts | 286° |
| 2026-04-20 18:12 | 19.82154 | -101.54638 | 38130 ft | 430 kts | 286° |
| 2026-04-20 18:13 | 19.84160 | -101.60615 | 38129 ft | 429 kts | 286° |
| 2026-04-20 18:13 | 19.86159 | -101.66578 | 38135 ft | 427 kts | 286° |
| 2026-04-20 18:14 | 19.88136 | -101.72483 | 38139 ft | 426 kts | 285° |
| 2026-04-20 18:14 | 19.90119 | -101.78416 | 38141 ft | 426 kts | 285° |
| 2026-04-20 18:15 | 19.92103 | -101.84355 | 38144 ft | 427 kts | 285° |
| 2026-04-20 18:15 | 19.94086 | -101.90304 | 38124 ft | 427 kts | 285° |
| 2026-04-20 18:16 | 19.96077 | -101.96281 | 38125 ft | 429 kts | 285° |
| 2026-04-20 18:16 | 19.98057 | -102.02231 | 38125 ft | 429 kts | 285° |
| 2026-04-20 18:17 | 20.00051 | -102.08232 | 38118 ft | 430 kts | 285° |
| 2026-04-20 18:17 | 20.02044 | -102.14238 | 38121 ft | 432 kts | 285° |
| 2026-04-20 18:18 | 20.04044 | -102.20271 | 38118 ft | 433 kts | 285° |
| 2026-04-20 18:18 | 20.06030 | -102.26271 | 38115 ft | 432 kts | 285° |
| 2026-04-20 18:19 | 20.08024 | -102.32300 | 38090 ft | 431 kts | 285° |
| 2026-04-20 18:19 | 20.10007 | -102.38306 | 38085 ft | 430 kts | 285° |
| 2026-04-20 18:20 | 20.11984 | -102.44299 | 38104 ft | 428 kts | 285° |
| 2026-04-20 18:20 | 20.13955 | -102.50284 | 38086 ft | 428 kts | 285° |
| 2026-04-20 18:21 | 20.15917 | -102.56251 | 38089 ft | 426 kts | 285° |
| 2026-04-20 18:21 | 20.17862 | -102.62174 | 38089 ft | 425 kts | 285° |
| 2026-04-20 18:22 | 20.19822 | -102.68124 | 38088 ft | 425 kts | 286° |
| 2026-04-20 18:22 | 20.22503 | -102.73788 | 38094 ft | 430 kts | 294° |
| 2026-04-20 18:23 | 20.25424 | -102.79302 | 38105 ft | 430 kts | 294° |
| 2026-04-20 18:23 | 20.28351 | -102.84876 | 38092 ft | 430 kts | 294° |
| 2026-04-20 18:24 | 20.31251 | -102.90452 | 38101 ft | 430 kts | 294° |
| 2026-04-20 18:24 | 20.34143 | -102.96032 | 38111 ft | 430 kts | 294° |
| 2026-04-20 18:25 | 20.37004 | -103.01567 | 38083 ft | 426 kts | 294° |
| 2026-04-20 18:25 | 20.39895 | -103.07094 | 38096 ft | 425 kts | 294° |
| 2026-04-20 18:26 | 20.42741 | -103.12633 | 38207 ft | 426 kts | 294° |
| 2026-04-20 18:26 | 20.45585 | -103.18167 | 38250 ft | 426 kts | 294° |
| 2026-04-20 18:27 | 20.48426 | -103.23677 | 38282 ft | 426 kts | 294° |
| 2026-04-20 18:27 | 20.51292 | -103.29225 | 38287 ft | 427 kts | 295° |
| 2026-04-20 18:28 | 20.54985 | -103.34265 | 38290 ft | 436 kts | 309° |
| 2026-04-20 18:28 | 20.59248 | -103.38830 | 38280 ft | 437 kts | 309° |
| 2026-04-20 18:29 | 20.63538 | -103.43443 | 38232 ft | 438 kts | 309° |
| 2026-04-20 18:29 | 20.67810 | -103.48087 | 38172 ft | 438 kts | 309° |
| 2026-04-20 18:30 | 20.72069 | -103.52737 | 38135 ft | 438 kts | 309° |
| 2026-04-20 18:30 | 20.76313 | -103.57376 | 38061 ft | 438 kts | 309° |
| 2026-04-20 18:31 | 20.80585 | -103.62047 | 38051 ft | 439 kts | 309° |
| 2026-04-20 18:31 | 20.84827 | -103.66689 | 38051 ft | 439 kts | 309° |
| 2026-04-20 18:32 | 20.89093 | -103.71365 | 38033 ft | 439 kts | 309° |
| 2026-04-20 18:32 | 20.93348 | -103.76046 | 38036 ft | 438 kts | 309° |
| 2026-04-20 18:33 | 20.97599 | -103.80742 | 38051 ft | 438 kts | 309° |
| 2026-04-20 18:33 | 21.01821 | -103.85405 | 38046 ft | 439 kts | 309° |
| 2026-04-20 18:34 | 21.06065 | -103.90108 | 38051 ft | 439 kts | 309° |
| 2026-04-20 18:34 | 21.10318 | -103.94798 | 38047 ft | 437 kts | 309° |
| 2026-04-20 18:35 | 21.14558 | -103.99472 | 38028 ft | 437 kts | 309° |
| 2026-04-20 18:35 | 21.18777 | -104.04128 | 38041 ft | 437 kts | 309° |
| 2026-04-20 18:36 | 21.23025 | -104.08815 | 38031 ft | 438 kts | 309° |
| 2026-04-20 18:36 | 21.27265 | -104.13525 | 38032 ft | 437 kts | 309° |
| 2026-04-20 18:37 | 21.31450 | -104.18189 | 38019 ft | 436 kts | 309° |
| 2026-04-20 18:37 | 21.35661 | -104.22861 | 38028 ft | 434 kts | 309° |
| 2026-04-20 18:38 | 21.39859 | -104.27522 | 38015 ft | 434 kts | 309° |
| 2026-04-20 18:38 | 21.44032 | -104.32160 | 38018 ft | 433 kts | 309° |
| 2026-04-20 18:39 | 21.48222 | -104.36821 | 38016 ft | 434 kts | 309° |
| 2026-04-20 18:39 | 21.52407 | -104.41481 | 38014 ft | 433 kts | 309° |
| 2026-04-20 18:40 | 21.56580 | -104.46134 | 38024 ft | 431 kts | 309° |
| 2026-04-20 18:40 | 21.60715 | -104.50751 | 38004 ft | 431 kts | 309° |
| 2026-04-20 18:41 | 21.64879 | -104.55400 | 38006 ft | 431 kts | 309° |
| 2026-04-20 18:41 | 21.69040 | -104.60049 | 38010 ft | 431 kts | 309° |
| 2026-04-20 18:42 | 21.73198 | -104.64699 | 38006 ft | 431 kts | 309° |
| 2026-04-20 18:42 | 21.77356 | -104.69346 | 38003 ft | 431 kts | 309° |
| 2026-04-20 18:43 | 21.81479 | -104.73968 | 38015 ft | 430 kts | 309° |
| 2026-04-20 18:43 | 21.85636 | -104.78625 | 38003 ft | 431 kts | 309° |
| 2026-04-20 18:44 | 21.89096 | -104.82507 | 38000 ft | 432 kts | 309° |
| 2026-04-20 18:44 | 21.93257 | -104.87183 | 38028 ft | 433 kts | 309° |
| 2026-04-20 18:45 | 21.97432 | -104.91879 | 38019 ft | 433 kts | 309° |
| 2026-04-20 18:45 | 22.01578 | -104.96550 | 38012 ft | 434 kts | 309° |
| 2026-04-20 18:46 | 22.05756 | -105.01258 | 38010 ft | 433 kts | 309° |
| 2026-04-20 18:46 | 22.09911 | -105.05945 | 38025 ft | 432 kts | 309° |
| 2026-04-20 18:47 | 22.14054 | -105.10625 | 38024 ft | 431 kts | 309° |
| 2026-04-20 18:47 | 22.18186 | -105.15300 | 38007 ft | 430 kts | 309° |
| 2026-04-20 18:48 | 22.22322 | -105.19971 | 38025 ft | 430 kts | 309° |
| 2026-04-20 18:48 | 22.26464 | -105.24649 | 38015 ft | 430 kts | 309° |
| 2026-04-20 18:49 | 22.30574 | -105.29301 | 38008 ft | 431 kts | 309° |
| 2026-04-20 18:49 | 22.34720 | -105.33999 | 38015 ft | 432 kts | 309° |
| 2026-04-20 18:50 | 22.38872 | -105.38708 | 38020 ft | 433 kts | 309° |
| 2026-04-20 18:50 | 22.43037 | -105.43435 | 38017 ft | 434 kts | 309° |
| 2026-04-20 18:51 | 22.47178 | -105.48141 | 38015 ft | 434 kts | 309° |
| 2026-04-20 18:51 | 22.51359 | -105.52894 | 38006 ft | 435 kts | 309° |
| 2026-04-20 18:52 | 22.55528 | -105.57640 | 38006 ft | 435 kts | 309° |
| 2026-04-20 18:52 | 22.59674 | -105.62362 | 38009 ft | 435 kts | 309° |
| 2026-04-20 18:53 | 22.63847 | -105.67122 | 38019 ft | 435 kts | 309° |
| 2026-04-20 18:53 | 22.68014 | -105.71878 | 38016 ft | 435 kts | 309° |
| 2026-04-20 18:54 | 22.72188 | -105.76647 | 38014 ft | 435 kts | 309° |
| 2026-04-20 18:54 | 22.76320 | -105.81372 | 38016 ft | 434 kts | 309° |
| 2026-04-20 18:55 | 22.80474 | -105.86127 | 38015 ft | 433 kts | 309° |
| 2026-04-20 18:55 | 22.84625 | -105.90883 | 38019 ft | 433 kts | 309° |
| 2026-04-20 18:56 | 22.88739 | -105.95602 | 38021 ft | 433 kts | 309° |
| 2026-04-20 18:56 | 22.92872 | -106.00346 | 38039 ft | 433 kts | 309° |
| 2026-04-20 18:57 | 22.97010 | -106.05100 | 38033 ft | 432 kts | 309° |
| 2026-04-20 18:57 | 23.01135 | -106.09845 | 38043 ft | 432 kts | 309° |
| 2026-04-20 18:58 | 23.05232 | -106.14563 | 38045 ft | 431 kts | 309° |
| 2026-04-20 18:58 | 23.09344 | -106.19302 | 38053 ft | 430 kts | 309° |
| 2026-04-20 18:59 | 23.13447 | -106.24035 | 38056 ft | 430 kts | 309° |
| 2026-04-20 18:59 | 23.17563 | -106.28753 | 38055 ft | 430 kts | 310° |
| 2026-04-20 19:00 | 23.21814 | -106.33347 | 38049 ft | 431 kts | 311° |
| 2026-04-20 19:00 | 23.26064 | -106.37893 | 38031 ft | 431 kts | 310° |
| 2026-04-20 19:01 | 23.30328 | -106.42491 | 38020 ft | 430 kts | 310° |
| 2026-04-20 19:01 | 23.34563 | -106.47081 | 38020 ft | 429 kts | 310° |
| 2026-04-20 19:02 | 23.38783 | -106.51664 | 38021 ft | 428 kts | 310° |
| 2026-04-20 19:02 | 23.42994 | -106.56241 | 38020 ft | 427 kts | 310° |
| 2026-04-20 19:03 | 23.47198 | -106.60814 | 38020 ft | 427 kts | 310° |
| 2026-04-20 19:03 | 23.51394 | -106.65382 | 38027 ft | 426 kts | 310° |
| 2026-04-20 19:04 | 23.55563 | -106.69915 | 38025 ft | 425 kts | 310° |
| 2026-04-20 19:04 | 23.59754 | -106.74473 | 38019 ft | 424 kts | 310° |
| 2026-04-20 19:05 | 23.63922 | -106.79010 | 38025 ft | 423 kts | 310° |
| 2026-04-20 19:05 | 23.68084 | -106.83548 | 38020 ft | 422 kts | 310° |
| 2026-04-20 19:06 | 23.72203 | -106.88043 | 38025 ft | 421 kts | 310° |
| 2026-04-20 19:06 | 23.76341 | -106.92564 | 38026 ft | 420 kts | 310° |
| 2026-04-20 19:07 | 23.80470 | -106.97079 | 38028 ft | 420 kts | 310° |
| 2026-04-20 19:07 | 23.84602 | -107.01602 | 38025 ft | 420 kts | 310° |
| 2026-04-20 19:08 | 23.90796 | -107.08390 | 38030 ft | 421 kts | 310° |
| 2026-04-20 19:09 | 23.94909 | -107.12903 | 38027 ft | 421 kts | 310° |
| 2026-04-20 19:09 | 23.99048 | -107.17448 | 38027 ft | 421 kts | 310° |
| 2026-04-20 19:10 | 24.03188 | -107.21999 | 38049 ft | 422 kts | 310° |
| 2026-04-20 19:10 | 24.07302 | -107.26525 | 38030 ft | 422 kts | 310° |
| 2026-04-20 19:11 | 24.11443 | -107.31086 | 38029 ft | 421 kts | 310° |
| 2026-04-20 19:11 | 24.15577 | -107.35643 | 38026 ft | 421 kts | 310° |
| 2026-04-20 19:12 | 24.19696 | -107.40189 | 38021 ft | 420 kts | 310° |
| 2026-04-20 19:12 | 24.23807 | -107.44729 | 38021 ft | 419 kts | 310° |
| 2026-04-20 19:13 | 24.27879 | -107.49231 | 38031 ft | 418 kts | 310° |
| 2026-04-20 19:13 | 24.31969 | -107.53758 | 38030 ft | 418 kts | 310° |
| 2026-04-20 19:14 | 24.36054 | -107.58284 | 38024 ft | 417 kts | 310° |
| 2026-04-20 19:14 | 24.40130 | -107.62803 | 38027 ft | 416 kts | 310° |
| 2026-04-20 19:15 | 24.44198 | -107.67319 | 38026 ft | 415 kts | 310° |
| 2026-04-20 19:15 | 24.48263 | -107.71835 | 38021 ft | 415 kts | 310° |
| 2026-04-20 19:16 | 24.52313 | -107.76339 | 38028 ft | 414 kts | 310° |
| 2026-04-20 19:16 | 24.56337 | -107.80819 | 38049 ft | 414 kts | 309° |
| 2026-04-20 19:17 | 24.60386 | -107.85332 | 38030 ft | 414 kts | 309° |
| 2026-04-20 19:17 | 24.64425 | -107.89837 | 38027 ft | 413 kts | 309° |
| 2026-04-20 19:18 | 24.68444 | -107.94324 | 38027 ft | 413 kts | 309° |
| 2026-04-20 19:18 | 24.72473 | -107.98827 | 38030 ft | 413 kts | 309° |
| 2026-04-20 19:19 | 24.76506 | -108.03339 | 38016 ft | 413 kts | 309° |
| 2026-04-20 19:19 | 24.80532 | -108.07847 | 38022 ft | 413 kts | 309° |
| 2026-04-20 19:20 | 24.84562 | -108.12364 | 38038 ft | 413 kts | 309° |
| 2026-04-20 19:20 | 24.88565 | -108.16856 | 38027 ft | 413 kts | 309° |
| 2026-04-20 19:21 | 24.92590 | -108.21377 | 38028 ft | 413 kts | 309° |
| 2026-04-20 19:21 | 24.96620 | -108.25908 | 38019 ft | 413 kts | 309° |
| 2026-04-20 19:22 | 25.00642 | -108.30435 | 38022 ft | 413 kts | 309° |
| 2026-04-20 19:22 | 25.04637 | -108.34936 | 38029 ft | 413 kts | 309° |
| 2026-04-20 19:23 | 25.08655 | -108.39467 | 38040 ft | 413 kts | 309° |
| 2026-04-20 19:23 | 25.12682 | -108.44007 | 38031 ft | 413 kts | 309° |
| 2026-04-20 19:24 | 25.16707 | -108.48539 | 38028 ft | 413 kts | 309° |
| 2026-04-20 19:24 | 25.20727 | -108.53072 | 38022 ft | 412 kts | 309° |
| 2026-04-20 19:25 | 25.24711 | -108.57570 | 38028 ft | 412 kts | 309° |
| 2026-04-20 19:25 | 25.28719 | -108.62100 | 38025 ft | 411 kts | 309° |
| 2026-04-20 19:26 | 25.32721 | -108.66629 | 38023 ft | 411 kts | 309° |
| 2026-04-20 19:26 | 25.36711 | -108.71153 | 38038 ft | 411 kts | 309° |
| 2026-04-20 19:27 | 25.40676 | -108.75661 | 38023 ft | 411 kts | 309° |
| 2026-04-20 19:27 | 25.44662 | -108.80198 | 38027 ft | 410 kts | 309° |
| 2026-04-20 19:28 | 25.48636 | -108.84725 | 38035 ft | 410 kts | 309° |
| 2026-04-20 19:28 | 25.52615 | -108.89258 | 38042 ft | 409 kts | 308° |
| 2026-04-20 19:29 | 25.56561 | -108.93769 | 38033 ft | 409 kts | 308° |
| 2026-04-20 19:29 | 25.60558 | -108.98281 | 38060 ft | 410 kts | 308° |
| 2026-04-20 19:30 | 25.64503 | -109.02846 | 38056 ft | 410 kts | 308° |
| 2026-04-20 19:30 | 25.68518 | -109.07346 | 38040 ft | 413 kts | 313° |
| 2026-04-20 19:31 | 25.73189 | -109.11158 | 38048 ft | 418 kts | 318° |
| 2026-04-20 19:31 | 25.77940 | -109.14879 | 38043 ft | 417 kts | 318° |
| 2026-04-20 19:32 | 25.82660 | -109.18604 | 38040 ft | 417 kts | 318° |
| 2026-04-20 19:32 | 25.87380 | -109.22351 | 38048 ft | 417 kts | 317° |
| 2026-04-20 19:33 | 25.92070 | -109.26086 | 38034 ft | 417 kts | 317° |
| 2026-04-20 19:33 | 25.96785 | -109.29846 | 38024 ft | 417 kts | 317° |
| 2026-04-20 19:34 | 26.00705 | -109.32973 | 38024 ft | 417 kts | 317° |
| 2026-04-20 19:34 | 26.05419 | -109.36739 | 38018 ft | 417 kts | 317° |
| 2026-04-20 19:35 | 26.10145 | -109.40517 | 38020 ft | 417 kts | 317° |
| 2026-04-20 19:35 | 26.14839 | -109.44274 | 38029 ft | 417 kts | 317° |
| 2026-04-20 19:36 | 26.19561 | -109.48058 | 38024 ft | 417 kts | 317° |
| 2026-04-20 19:36 | 26.24276 | -109.51839 | 38024 ft | 417 kts | 317° |
| 2026-04-20 19:37 | 26.28966 | -109.55603 | 38025 ft | 417 kts | 317° |
| 2026-04-20 19:37 | 26.33685 | -109.59395 | 38023 ft | 417 kts | 317° |
| 2026-04-20 19:38 | 26.38397 | -109.63186 | 38021 ft | 417 kts | 317° |
| 2026-04-20 19:38 | 26.43082 | -109.66958 | 38023 ft | 417 kts | 317° |
| 2026-04-20 19:39 | 26.47801 | -109.70762 | 38019 ft | 417 kts | 317° |
| 2026-04-20 19:39 | 26.52518 | -109.74568 | 38019 ft | 417 kts | 317° |
| 2026-04-20 19:40 | 26.57223 | -109.78369 | 38022 ft | 417 kts | 317° |
| 2026-04-20 19:40 | 26.61908 | -109.82157 | 38019 ft | 417 kts | 317° |
| 2026-04-20 19:41 | 26.66617 | -109.85968 | 38025 ft | 418 kts | 317° |
| 2026-04-20 19:41 | 26.71329 | -109.89787 | 38019 ft | 418 kts | 317° |
| 2026-04-20 19:42 | 26.76013 | -109.93586 | 38018 ft | 418 kts | 317° |
| 2026-04-20 19:42 | 26.80726 | -109.97413 | 38016 ft | 418 kts | 317° |
| 2026-04-20 19:43 | 26.84638 | -110.00592 | 38016 ft | 418 kts | 317° |
| 2026-04-20 19:43 | 26.90141 | -110.05069 | 38043 ft | 418 kts | 317° |
| 2026-04-20 19:44 | 26.94853 | -110.08907 | 38023 ft | 418 kts | 317° |
| 2026-04-20 19:44 | 26.99564 | -110.12748 | 38015 ft | 418 kts | 317° |
| 2026-04-20 19:45 | 27.04239 | -110.16564 | 38014 ft | 418 kts | 317° |
| 2026-04-20 19:45 | 27.08946 | -110.20410 | 38017 ft | 418 kts | 317° |
| 2026-04-20 19:46 | 27.13659 | -110.24265 | 38015 ft | 418 kts | 317° |
| 2026-04-20 19:46 | 27.18363 | -110.28117 | 38024 ft | 418 kts | 317° |
| 2026-04-20 19:47 | 27.23071 | -110.31977 | 38019 ft | 419 kts | 317° |
| 2026-04-20 19:47 | 27.27780 | -110.35840 | 38022 ft | 419 kts | 317° |
| 2026-04-20 19:48 | 27.32483 | -110.39704 | 38026 ft | 419 kts | 317° |
| 2026-04-20 19:48 | 27.37157 | -110.43548 | 38016 ft | 419 kts | 317° |
| 2026-04-20 19:49 | 27.41859 | -110.47418 | 38027 ft | 419 kts | 317° |
| 2026-04-20 19:49 | 27.46567 | -110.51299 | 38017 ft | 419 kts | 317° |
| 2026-04-20 19:50 | 27.51274 | -110.55182 | 38013 ft | 419 kts | 317° |
| 2026-04-20 19:50 | 27.55980 | -110.59069 | 38013 ft | 419 kts | 317° |
| 2026-04-20 19:51 | 27.60678 | -110.62953 | 38015 ft | 419 kts | 317° |
| 2026-04-20 19:51 | 27.65349 | -110.66820 | 38038 ft | 418 kts | 317° |
| 2026-04-20 19:52 | 27.70052 | -110.70717 | 38018 ft | 419 kts | 317° |
| 2026-04-20 19:52 | 27.74751 | -110.74615 | 38023 ft | 419 kts | 317° |
| 2026-04-20 19:53 | 27.79446 | -110.78514 | 38022 ft | 419 kts | 317° |
| 2026-04-20 19:53 | 27.84138 | -110.82416 | 38017 ft | 419 kts | 317° |
| 2026-04-20 19:54 | 27.88810 | -110.86304 | 38030 ft | 419 kts | 316° |
| 2026-04-20 19:54 | 27.93506 | -110.90218 | 38030 ft | 419 kts | 317° |
| 2026-04-20 19:55 | 27.98177 | -110.94193 | 38026 ft | 418 kts | 315° |
| 2026-04-20 19:55 | 28.02630 | -110.98358 | 38023 ft | 417 kts | 313° |
| 2026-04-20 19:56 | 28.07075 | -111.02604 | 38025 ft | 417 kts | 313° |
| 2026-04-20 19:56 | 28.11528 | -111.06831 | 38023 ft | 417 kts | 314° |
| 2026-04-20 19:57 | 28.15983 | -111.11050 | 38007 ft | 417 kts | 314° |
| 2026-04-20 19:57 | 28.20420 | -111.15248 | 37999 ft | 417 kts | 315° |
| 2026-04-20 19:58 | 28.24900 | -111.19437 | 37988 ft | 417 kts | 314° |
| 2026-04-20 19:58 | 28.29354 | -111.23676 | 37995 ft | 418 kts | 313° |
| 2026-04-20 19:59 | 28.33816 | -111.27926 | 37990 ft | 419 kts | 314° |
| 2026-04-20 19:59 | 28.38287 | -111.32176 | 38024 ft | 419 kts | 314° |
| 2026-04-20 20:00 | 28.42769 | -111.36437 | 37998 ft | 420 kts | 314° |
| 2026-04-20 20:00 | 28.47250 | -111.40700 | 37996 ft | 420 kts | 314° |
| 2026-04-20 20:01 | 28.51705 | -111.44941 | 37997 ft | 420 kts | 314° |
| 2026-04-20 20:01 | 28.56189 | -111.49216 | 37987 ft | 420 kts | 314° |
| 2026-04-20 20:02 | 28.60664 | -111.53488 | 37988 ft | 419 kts | 314° |
| 2026-04-20 20:02 | 28.65105 | -111.57733 | 37995 ft | 419 kts | 314° |
| 2026-04-20 20:03 | 28.69566 | -111.62001 | 37993 ft | 419 kts | 314° |
| 2026-04-20 20:03 | 28.74028 | -111.66274 | 37986 ft | 418 kts | 314° |
| 2026-04-20 20:04 | 28.78460 | -111.70525 | 37987 ft | 418 kts | 314° |
| 2026-04-20 20:04 | 28.82901 | -111.74790 | 37977 ft | 417 kts | 314° |
| 2026-04-20 20:05 | 28.87342 | -111.79058 | 37979 ft | 417 kts | 314° |
| 2026-04-20 20:05 | 28.91775 | -111.83325 | 37978 ft | 417 kts | 314° |
| 2026-04-20 20:06 | 28.96217 | -111.87604 | 37982 ft | 417 kts | 314° |
| 2026-04-20 20:06 | 29.00632 | -111.91863 | 37986 ft | 417 kts | 314° |
| 2026-04-20 20:07 | 29.05075 | -111.96154 | 37993 ft | 418 kts | 314° |
| 2026-04-20 20:07 | 29.09532 | -112.00464 | 38017 ft | 419 kts | 314° |
| 2026-04-20 20:08 | 29.13964 | -112.04754 | 37994 ft | 420 kts | 314° |
| 2026-04-20 20:08 | 29.18424 | -112.09076 | 37994 ft | 420 kts | 314° |
| 2026-04-20 20:09 | 29.22901 | -112.13421 | 37961 ft | 422 kts | 314° |
| 2026-04-20 20:09 | 29.27358 | -112.17751 | 37975 ft | 421 kts | 314° |
| 2026-04-20 20:10 | 29.31834 | -112.22102 | 37992 ft | 421 kts | 314° |
| 2026-04-20 20:10 | 29.36276 | -112.26427 | 38000 ft | 421 kts | 314° |
| 2026-04-20 20:11 | 29.40740 | -112.30778 | 37984 ft | 420 kts | 314° |
| 2026-04-20 20:11 | 29.45191 | -112.35122 | 37985 ft | 419 kts | 314° |
| 2026-04-20 20:12 | 29.49629 | -112.39459 | 37993 ft | 418 kts | 314° |
| 2026-04-20 20:12 | 29.54023 | -112.43757 | 37999 ft | 417 kts | 314° |
| 2026-04-20 20:13 | 29.60632 | -112.50233 | 38000 ft | 416 kts | 314° |
| 2026-04-20 20:13 | 29.65037 | -112.54557 | 37996 ft | 415 kts | 314° |
| 2026-04-20 20:14 | 29.69403 | -112.58846 | 37996 ft | 415 kts | 314° |
| 2026-04-20 20:14 | 29.73799 | -112.63171 | 38000 ft | 416 kts | 314° |
| 2026-04-20 20:15 | 29.78204 | -112.67509 | 38013 ft | 416 kts | 314° |
| 2026-04-20 20:15 | 29.82607 | -112.71851 | 38004 ft | 417 kts | 314° |
| 2026-04-20 20:16 | 29.86993 | -112.76181 | 38000 ft | 418 kts | 314° |
| 2026-04-20 20:16 | 29.91415 | -112.80551 | 37998 ft | 418 kts | 313° |
| 2026-04-20 20:17 | 29.95812 | -112.84901 | 37998 ft | 419 kts | 313° |
| 2026-04-20 20:17 | 30.00230 | -112.89279 | 38012 ft | 419 kts | 314° |
| 2026-04-20 20:18 | 30.04659 | -112.93673 | 37999 ft | 419 kts | 314° |
| 2026-04-20 20:18 | 30.09092 | -112.98075 | 37997 ft | 419 kts | 314° |
| 2026-04-20 20:19 | 30.13495 | -113.02453 | 37994 ft | 419 kts | 314° |
| 2026-04-20 20:19 | 30.17913 | -113.06851 | 37994 ft | 419 kts | 313° |
| 2026-04-20 20:20 | 30.22330 | -113.11254 | 38010 ft | 419 kts | 314° |
| 2026-04-20 20:20 | 30.26745 | -113.15660 | 37997 ft | 419 kts | 313° |
| 2026-04-20 20:21 | 30.31160 | -113.20073 | 37994 ft | 419 kts | 313° |
| 2026-04-20 20:21 | 30.35577 | -113.24492 | 37994 ft | 419 kts | 313° |
| 2026-04-20 20:22 | 30.39957 | -113.28880 | 37992 ft | 419 kts | 313° |
| 2026-04-20 20:22 | 30.44361 | -113.33298 | 38022 ft | 419 kts | 314° |
| 2026-04-20 20:23 | 30.48775 | -113.37730 | 37999 ft | 419 kts | 313° |
| 2026-04-20 20:23 | 30.53162 | -113.42141 | 37989 ft | 419 kts | 313° |
| 2026-04-20 20:24 | 30.56852 | -113.45856 | 37988 ft | 419 kts | 313° |
| 2026-04-20 20:24 | 30.61228 | -113.50266 | 37990 ft | 419 kts | 313° |
| 2026-04-20 20:25 | 30.65640 | -113.54719 | 37989 ft | 420 kts | 313° |
| 2026-04-20 20:25 | 30.70050 | -113.59175 | 37995 ft | 421 kts | 313° |
| 2026-04-20 20:26 | 30.74469 | -113.63645 | 37986 ft | 421 kts | 313° |
| 2026-04-20 20:26 | 30.78906 | -113.68139 | 37987 ft | 422 kts | 313° |
| 2026-04-20 20:27 | 30.83299 | -113.72594 | 37989 ft | 422 kts | 313° |
| 2026-04-20 20:27 | 30.87730 | -113.77093 | 38003 ft | 422 kts | 313° |
| 2026-04-20 20:28 | 30.92160 | -113.81597 | 37991 ft | 423 kts | 313° |
| 2026-04-20 20:28 | 30.96598 | -113.86117 | 37989 ft | 424 kts | 313° |
| 2026-04-20 20:29 | 31.01044 | -113.90649 | 37984 ft | 424 kts | 313° |
| 2026-04-20 20:29 | 31.05488 | -113.95185 | 37983 ft | 425 kts | 313° |
| 2026-04-20 20:30 | 31.09919 | -113.99714 | 37987 ft | 425 kts | 313° |
| 2026-04-20 20:30 | 31.14381 | -114.04279 | 37984 ft | 425 kts | 313° |
| 2026-04-20 20:31 | 31.18831 | -114.08836 | 37970 ft | 426 kts | 313° |
| 2026-04-20 20:31 | 31.23253 | -114.13374 | 37982 ft | 426 kts | 313° |
| 2026-04-20 20:32 | 31.27703 | -114.17948 | 37979 ft | 426 kts | 313° |
| 2026-04-20 20:32 | 31.32157 | -114.22530 | 37987 ft | 427 kts | 313° |
| 2026-04-20 20:33 | 31.36618 | -114.27126 | 37984 ft | 427 kts | 313° |
| 2026-04-20 20:33 | 31.41082 | -114.31729 | 37982 ft | 427 kts | 313° |
| 2026-04-20 20:34 | 31.45518 | -114.36310 | 37986 ft | 428 kts | 313° |
| 2026-04-20 20:34 | 31.49979 | -114.40922 | 37974 ft | 428 kts | 313° |
| 2026-04-20 20:35 | 31.54444 | -114.45546 | 37995 ft | 428 kts | 313° |
| 2026-04-20 20:35 | 31.58914 | -114.50182 | 37987 ft | 429 kts | 313° |
| 2026-04-20 20:36 | 31.63399 | -114.54840 | 37981 ft | 430 kts | 313° |
| 2026-04-20 20:36 | 31.67858 | -114.59475 | 37984 ft | 430 kts | 313° |
| 2026-04-20 20:37 | 31.72346 | -114.64148 | 37991 ft | 431 kts | 313° |
| 2026-04-20 20:37 | 31.76839 | -114.68832 | 37982 ft | 431 kts | 313° |
| 2026-04-20 20:38 | 31.81330 | -114.73520 | 37981 ft | 432 kts | 313° |
| 2026-04-20 20:38 | 31.85795 | -114.78187 | 37980 ft | 432 kts | 313° |
| 2026-04-20 20:39 | 31.90245 | -114.82952 | 37971 ft | 431 kts | 312° |
| 2026-04-20 20:39 | 31.94651 | -114.87753 | 37986 ft | 432 kts | 312° |
| 2026-04-20 20:40 | 31.99039 | -114.92537 | 37978 ft | 433 kts | 313° |
| 2026-04-20 20:40 | 32.03467 | -114.97357 | 37977 ft | 433 kts | 313° |
| 2026-04-20 20:41 | 32.07903 | -115.02188 | 37959 ft | 434 kts | 312° |
| 2026-04-20 20:41 | 32.12342 | -115.07027 | 37969 ft | 434 kts | 312° |
| 2026-04-20 20:42 | 32.16756 | -115.11847 | 37973 ft | 435 kts | 313° |
| 2026-04-20 20:42 | 32.21203 | -115.16708 | 37967 ft | 436 kts | 313° |
| 2026-04-20 20:43 | 32.25660 | -115.21588 | 37961 ft | 437 kts | 313° |
| 2026-04-20 20:43 | 32.30125 | -115.26484 | 37964 ft | 438 kts | 312° |
| 2026-04-20 20:44 | 32.34589 | -115.31385 | 37973 ft | 438 kts | 313° |
| 2026-04-20 20:44 | 32.39067 | -115.36309 | 37959 ft | 439 kts | 312° |
| 2026-04-20 20:45 | 32.43513 | -115.41205 | 37959 ft | 439 kts | 312° |
| 2026-04-20 20:45 | 32.47994 | -115.46147 | 37958 ft | 440 kts | 312° |
| 2026-04-20 20:46 | 32.52477 | -115.51097 | 37958 ft | 440 kts | 312° |
| 2026-04-20 20:46 | 32.56962 | -115.56058 | 37968 ft | 441 kts | 313° |
| 2026-04-20 20:47 | 32.61427 | -115.61002 | 37981 ft | 442 kts | 313° |
| 2026-04-20 20:47 | 32.65759 | -115.66154 | 37992 ft | 438 kts | 303° |
| 2026-04-20 20:48 | 32.69024 | -115.72197 | 37990 ft | 434 kts | 297° |
| 2026-04-20 20:48 | 32.72180 | -115.78341 | 38003 ft | 435 kts | 298° |
| 2026-04-20 20:49 | 32.75359 | -115.84433 | 37990 ft | 436 kts | 298° |
| 2026-04-20 20:49 | 32.78576 | -115.90564 | 37991 ft | 437 kts | 298° |
| 2026-04-20 20:50 | 32.81775 | -115.96719 | 37997 ft | 437 kts | 297° |
| 2026-04-20 20:50 | 32.84865 | -116.02884 | 37979 ft | 435 kts | 296° |
| 2026-04-20 20:51 | 32.87956 | -116.09095 | 37845 ft | 434 kts | 296° |
| 2026-04-20 20:51 | 32.89492 | -116.12176 | 37564 ft | 432 kts | 297° |
| 2026-04-20 20:51 | 32.91010 | -116.15218 | 37310 ft | 432 kts | 297° |
| 2026-04-20 20:52 | 32.92544 | -116.18292 | 37052 ft | 431 kts | 297° |
| 2026-04-20 20:52 | 32.94076 | -116.21362 | 36797 ft | 431 kts | 297° |
| 2026-04-20 20:52 | 32.95607 | -116.24435 | 36540 ft | 432 kts | 297° |
| 2026-04-20 20:52 | 32.97139 | -116.27511 | 36297 ft | 431 kts | 296° |
| 2026-04-20 20:53 | 32.98670 | -116.30586 | 36047 ft | 431 kts | 296° |
| 2026-04-20 20:53 | 33.00197 | -116.33657 | 35475 ft | 431 kts | 296° |
| 2026-04-20 20:53 | 33.01722 | -116.36726 | 34903 ft | 429 kts | 296° |
| 2026-04-20 20:53 | 33.03243 | -116.39791 | 34257 ft | 431 kts | 296° |
| 2026-04-20 20:54 | 33.04768 | -116.42877 | 33539 ft | 431 kts | 296° |
| 2026-04-20 20:54 | 33.06120 | -116.46051 | 32815 ft | 429 kts | 291° |
| 2026-04-20 20:54 | 33.07299 | -116.49265 | 32099 ft | 429 kts | 290° |
| 2026-04-20 20:54 | 33.08461 | -116.52557 | 31381 ft | 430 kts | 290° |
| 2026-04-20 20:55 | 33.09639 | -116.55855 | 30633 ft | 433 kts | 290° |
| 2026-04-20 20:55 | 33.10850 | -116.59152 | 29789 ft | 436 kts | 291° |
| 2026-04-20 20:55 | 33.12082 | -116.62458 | 28853 ft | 437 kts | 291° |
| 2026-04-20 20:55 | 33.13299 | -116.65800 | 27954 ft | 437 kts | 288° |
| 2026-04-20 20:56 | 33.14061 | -116.69304 | 27044 ft | 436 kts | 278° |
| 2026-04-20 20:56 | 33.14565 | -116.72826 | 26099 ft | 436 kts | 276° |
| 2026-04-20 20:56 | 33.15027 | -116.76428 | 25412 ft | 442 kts | 276° |
| 2026-04-20 20:56 | 33.15492 | -116.80037 | 24690 ft | 438 kts | 276° |
| 2026-04-20 20:57 | 33.15972 | -116.83613 | 23992 ft | 435 kts | 277° |
| 2026-04-20 20:57 | 33.16468 | -116.87165 | 23223 ft | 432 kts | 277° |
| 2026-04-20 20:57 | 33.16972 | -116.90688 | 22471 ft | 427 kts | 277° |
| 2026-04-20 20:57 | 33.17477 | -116.94164 | 21755 ft | 422 kts | 277° |
| 2026-04-20 20:58 | 33.17977 | -116.97597 | 21067 ft | 418 kts | 277° |
| 2026-04-20 20:58 | 33.18471 | -117.00995 | 20400 ft | 413 kts | 277° |
| 2026-04-20 20:58 | 33.18954 | -117.04327 | 19741 ft | 410 kts | 277° |
| 2026-04-20 20:58 | 33.19438 | -117.07676 | 19037 ft | 408 kts | 277° |
| 2026-04-20 20:59 | 33.19919 | -117.11014 | 18325 ft | 406 kts | 277° |
| 2026-04-20 20:59 | 33.20395 | -117.14328 | 17577 ft | 404 kts | 277° |
| 2026-04-20 20:59 | 33.20867 | -117.17618 | 16900 ft | 399 kts | 277° |
| 2026-04-20 20:59 | 33.21334 | -117.20870 | 16247 ft | 395 kts | 277° |
| 2026-04-20 21:00 | 33.21793 | -117.24084 | 15584 ft | 391 kts | 277° |
| 2026-04-20 21:00 | 33.22249 | -117.27284 | 14949 ft | 387 kts | 277° |
| 2026-04-20 21:00 | 33.22698 | -117.30436 | 14315 ft | 384 kts | 277° |
| 2026-04-20 21:00 | 33.23151 | -117.33554 | 13994 ft | 373 kts | 277° |
| 2026-04-20 21:01 | 33.23613 | -117.36533 | 13795 ft | 370 kts | 278° |
| 2026-04-20 21:01 | 33.24103 | -117.39642 | 13644 ft | 386 kts | 278° |
| 2026-04-20 21:01 | 33.24604 | -117.42818 | 13482 ft | 389 kts | 278° |
| 2026-04-20 21:01 | 33.25101 | -117.45990 | 13312 ft | 387 kts | 278° |
| 2026-04-20 21:02 | 33.25593 | -117.49149 | 13162 ft | 385 kts | 278° |
| 2026-04-20 21:02 | 33.26099 | -117.52284 | 13009 ft | 385 kts | 281° |
| 2026-04-20 21:02 | 33.27144 | -117.55251 | 12766 ft | 393 kts | 300° |
| 2026-04-20 21:02 | 33.28673 | -117.57959 | 12641 ft | 391 kts | 301° |
| 2026-04-20 21:03 | 33.30164 | -117.60631 | 12465 ft | 391 kts | 301° |
| 2026-04-20 21:03 | 33.31652 | -117.63345 | 12335 ft | 389 kts | 301° |
| 2026-04-20 21:03 | 33.33125 | -117.66059 | 12209 ft | 389 kts | 300° |
| 2026-04-20 21:03 | 33.34589 | -117.68775 | 12082 ft | 389 kts | 300° |
| 2026-04-20 21:04 | 33.36058 | -117.71510 | 11961 ft | 389 kts | 300° |
| 2026-04-20 21:04 | 33.37520 | -117.74233 | 11825 ft | 388 kts | 300° |
| 2026-04-20 21:04 | 33.38964 | -117.76929 | 11610 ft | 390 kts | 300° |
| 2026-04-20 21:04 | 33.40421 | -117.79647 | 11359 ft | 382 kts | 300° |
| 2026-04-20 21:05 | 33.41833 | -117.82281 | 11106 ft | 368 kts | 301° |
| 2026-04-20 21:05 | 33.43190 | -117.84814 | 10857 ft | 355 kts | 301° |
| 2026-04-20 21:05 | 33.44497 | -117.87256 | 10695 ft | 341 kts | 300° |
| 2026-04-20 21:05 | 33.45751 | -117.89599 | 10599 ft | 327 kts | 300° |
| 2026-04-20 21:06 | 33.46969 | -117.91844 | 10385 ft | 319 kts | 304° |
| 2026-04-20 21:06 | 33.48617 | -117.93613 | 10115 ft | 318 kts | 329° |
| 2026-04-20 21:06 | 33.50584 | -117.94633 | 10038 ft | 307 kts | 339° |
| 2026-04-20 21:06 | 33.52590 | -117.95476 | 9731 ft | 305 kts | 340° |
| 2026-04-20 21:07 | 33.54595 | -117.96302 | 9389 ft | 303 kts | 340° |
| 2026-04-20 21:07 | 33.56577 | -117.97135 | 9047 ft | 302 kts | 339° |
| 2026-04-20 21:07 | 33.58561 | -117.97987 | 8673 ft | 302 kts | 339° |
| 2026-04-20 21:07 | 33.60529 | -117.98841 | 8378 ft | 299 kts | 339° |
| 2026-04-20 21:08 | 33.62461 | -117.99679 | 7999 ft | 300 kts | 340° |
| 2026-04-20 21:08 | 33.64437 | -118.00440 | 7731 ft | 297 kts | 342° |
| 2026-04-20 21:08 | 33.66419 | -118.01147 | 7481 ft | 297 kts | 343° |
| 2026-04-20 21:08 | 33.68400 | -118.01856 | 7234 ft | 296 kts | 342° |
| 2026-04-20 21:09 | 33.70364 | -118.02567 | 7040 ft | 291 kts | 342° |
| 2026-04-20 21:09 | 33.72273 | -118.03260 | 6976 ft | 282 kts | 342° |
| 2026-04-20 21:09 | 33.74130 | -118.03937 | 6977 ft | 276 kts | 342° |
| 2026-04-20 21:09 | 33.75952 | -118.04604 | 6953 ft | 272 kts | 342° |
| 2026-04-20 21:10 | 33.77742 | -118.05258 | 6938 ft | 263 kts | 342° |
| 2026-04-20 21:10 | 33.79459 | -118.05960 | 6737 ft | 261 kts | 338° |
| 2026-04-20 21:10 | 33.81122 | -118.06768 | 6465 ft | 262 kts | 337° |
| 2026-04-20 21:10 | 33.82814 | -118.07603 | 6148 ft | 264 kts | 336° |
| 2026-04-20 21:11 | 33.84529 | -118.08438 | 5832 ft | 267 kts | 337° |
| 2026-04-20 21:11 | 33.86259 | -118.09274 | 5495 ft | 268 kts | 338° |
| 2026-04-20 21:11 | 33.87998 | -118.10109 | 5236 ft | 266 kts | 338° |
| 2026-04-20 21:11 | 33.89706 | -118.10802 | 4960 ft | 259 kts | 352° |
| 2026-04-20 21:12 | 33.91465 | -118.10919 | 4799 ft | 246 kts | 359° |
| 2026-04-20 21:12 | 33.93102 | -118.11237 | 4637 ft | 234 kts | 333° |
| 2026-04-20 21:12 | 33.94385 | -118.12328 | 4511 ft | 221 kts | 321° |
| 2026-04-20 21:12 | 33.95551 | -118.13613 | 3981 ft | 229 kts | 303° |
| 2026-04-20 21:13 | 33.95956 | -118.15352 | 3793 ft | 216 kts | 266° |
| 2026-04-20 21:13 | 33.95874 | -118.17132 | 3527 ft | 210 kts | 265° |
| 2026-04-20 21:13 | 33.95746 | -118.18861 | 3272 ft | 204 kts | 262° |
| 2026-04-20 21:13 | 33.95580 | -118.20546 | 3001 ft | 200 kts | 262° |
| 2026-04-20 21:14 | 33.95410 | -118.22180 | 2738 ft | 193 kts | 261° |
| 2026-04-20 21:14 | 33.95247 | -118.23724 | 2498 ft | 178 kts | 261° |
| 2026-04-20 21:14 | 33.95103 | -118.25112 | 2275 ft | 157 kts | 261° |
| 2026-04-20 21:14 | 33.95017 | -118.25942 | 2152 ft | 143 kts | 260° |
| 2026-04-20 21:15 | 33.94861 | -118.27436 | 1918 ft | 131 kts | 260° |
| 2026-04-20 21:15 | 33.94749 | -118.28507 | 1714 ft | 129 kts | 259° |
| 2026-04-20 21:15 | 33.94634 | -118.29615 | 1569 ft | 136 kts | 258° |
| 2026-04-20 21:15 | 33.94557 | -118.30358 | 1419 ft | 133 kts | 259° |
| 2026-04-20 21:16 | 33.94444 | -118.31451 | 1270 ft | 127 kts | 260° |
| 2026-04-20 21:16 | 33.94337 | -118.32482 | 1075 ft | 122 kts | 261° |
| 2026-04-20 21:16 | 33.94216 | -118.33529 | 915 ft | 127 kts | 261° |
| 2026-04-20 21:16 | 33.94110 | -118.34557 | 790 ft | 119 kts | 265° |
| 2026-04-20 21:17 | 33.94024 | -118.35541 | 586 ft | 117 kts | 260° |
| 2026-04-20 21:17 | 33.93918 | -118.36497 | 454 ft | 116 kts | 263° |
| 2026-04-20 21:17 | 33.93818 | -118.37470 | 274 ft | 118 kts | 264° |
| 2026-04-20 21:17 | 33.93718 | -118.38454 | 114 ft | 120 kts | 262° |
| 2026-04-20 21:18 | 33.93626 | -118.39352 | 93 ft | 93 kts | 262° |
| 2026-04-20 21:18 | 33.93567 | -118.39944 | 95 ft | 49 kts | 264° |
| 2026-04-20 21:18 | 33.93575 | -118.40177 | 95 ft | 13 kts | 275° |
| 2026-04-20 21:18 | 33.93601 | -118.40293 | 95 ft | 15 kts | 291° |
| 2026-04-20 21:19 | 33.93627 | -118.40413 | 94 ft | 15 kts | 269° |
| 2026-04-20 21:19 | 33.93615 | -118.40531 | 94 ft | 14 kts | 264° |
| 2026-04-20 21:19 | 33.93601 | -118.40669 | 93 ft | 20 kts | 262° |
| 2026-04-20 21:20 | 33.93708 | -118.40903 | 94 ft | 18 kts | 354° |
| 2026-04-20 21:20 | 33.93768 | -118.40912 | 93 ft | 3 kts | 348° |
| 2026-04-20 21:20 | 33.93778 | -118.40918 | 93 ft | 1 kts | 324° |
| 2026-04-20 21:20 | 33.93781 | -118.40930 | 93 ft | 2 kts | 276° |
| 2026-04-20 21:21 | 33.93780 | -118.40949 | 93 ft | 3 kts | 266° |
| 2026-04-20 21:21 | 33.93775 | -118.41008 | 92 ft | 13 kts | 262° |
| 2026-04-20 21:21 | 33.93775 | -118.41135 | 93 ft | 16 kts | 303° |
| 2026-04-20 21:21 | 33.93887 | -118.41165 | 92 ft | 19 kts | 353° |
| 2026-04-20 21:22 | 33.94053 | -118.41190 | 93 ft | 28 kts | 352° |
| 2026-04-20 21:22 | 33.94252 | -118.41219 | 94 ft | 28 kts | 352° |
| 2026-04-20 21:22 | 33.94439 | -118.41247 | 93 ft | 26 kts | 353° |
| 2026-04-20 21:22 | 33.94608 | -118.41273 | 93 ft | 19 kts | 353° |
| 2026-04-20 21:23 | 33.94700 | -118.41243 | 94 ft | 14 kts | 65° |
| 2026-04-20 21:23 | 33.94726 | -118.41131 | 92 ft | 14 kts | 81° |
| 2026-04-20 21:23 | 33.94738 | -118.41020 | 92 ft | 13 kts | 83° |
| 2026-04-20 21:23 | 33.94728 | -118.40948 | 94 ft | 6 kts | 165° |
| 2026-04-20 21:24 | 33.94697 | -118.40976 | 94 ft | 6 kts | 221° |
| 2026-04-20 21:24 | 33.94685 | -118.40988 | 92 ft | 0 kts | 220° |